sensor_id;sensor_type;location;lat;lon;timestamp;P1;durP1;ratioP1;P2;durP2;ratioP2
64609;SDS011;51019;46.090;6.350;2022-12-18T00:01:27;35.72;;;16.95;;
64609;SDS011;51019;46.090;6.350;2022-12-18T00:03:56;34.53;;;15.35;;
64609;SDS011;51019;46.090;6.350;2022-12-18T00:06:26;35.17;;;15.32;;
64609;SDS011;51019;46.090;6.350;2022-12-18T00:08:58;37.20;;;16.15;;
64609;SDS011;51019;46.090;6.350;2022-12-18T00:11:27;43.28;;;18.85;;
64609;SDS011;51019;46.090;6.350;2022-12-18T00:13:58;43.08;;;18.65;;
64609;SDS011;51019;46.090;6.350;2022-12-18T00:16:27;40.40;;;17.95;;
64609;SDS011;51019;46.090;6.350;2022-12-18T00:18:58;39.10;;;18.33;;
64609;SDS011;51019;46.090;6.350;2022-12-18T00:21:27;37.42;;;15.93;;
64609;SDS011;51019;46.090;6.350;2022-12-18T00:23:56;36.40;;;17.33;;
64609;SDS011;51019;46.090;6.350;2022-12-18T00:26:27;36.63;;;16.58;;
64609;SDS011;51019;46.090;6.350;2022-12-18T00:28:58;38.53;;;17.00;;
64609;SDS011;51019;46.090;6.350;2022-12-18T00:31:28;39.53;;;16.42;;
64609;SDS011;51019;46.090;6.350;2022-12-18T00:33:56;37.92;;;17.10;;
64609;SDS011;51019;46.090;6.350;2022-12-18T00:36:27;40.55;;;17.25;;
64609;SDS011;51019;46.090;6.350;2022-12-18T00:38:56;37.40;;;16.05;;
64609;SDS011;51019;46.090;6.350;2022-12-18T00:41:27;37.28;;;16.70;;
64609;SDS011;51019;46.090;6.350;2022-12-18T00:44:12;36.88;;;16.88;;
64609;SDS011;51019;46.090;6.350;2022-12-18T00:46:40;35.47;;;15.18;;
64609;SDS011;51019;46.090;6.350;2022-12-18T00:49:10;37.75;;;16.42;;
64609;SDS011;51019;46.090;6.350;2022-12-18T00:51:39;38.75;;;16.48;;
64609;SDS011;51019;46.090;6.350;2022-12-18T00:54:08;35.85;;;15.82;;
64609;SDS011;51019;46.090;6.350;2022-12-18T00:56:36;39.20;;;17.52;;
64609;SDS011;51019;46.090;6.350;2022-12-18T00:59:04;36.70;;;17.15;;
64609;SDS011;51019;46.090;6.350;2022-12-18T01:01:35;41.05;;;18.50;;
64609;SDS011;51019;46.090;6.350;2022-12-18T01:04:02;36.97;;;16.17;;
64609;SDS011;51019;46.090;6.350;2022-12-18T01:06:30;41.20;;;16.92;;
64609;SDS011;51019;46.090;6.350;2022-12-18T01:08:59;41.42;;;18.67;;
64609;SDS011;51019;46.090;6.350;2022-12-18T01:11:32;40.95;;;18.70;;
64609;SDS011;51019;46.090;6.350;2022-12-18T01:13:59;38.65;;;17.30;;
64609;SDS011;51019;46.090;6.350;2022-12-18T01:16:28;36.97;;;16.15;;
64609;SDS011;51019;46.090;6.350;2022-12-18T01:18:55;41.08;;;17.35;;
64609;SDS011;51019;46.090;6.350;2022-12-18T01:21:23;37.47;;;16.42;;
64609;SDS011;51019;46.090;6.350;2022-12-18T01:23:52;38.17;;;16.42;;
64609;SDS011;51019;46.090;6.350;2022-12-18T01:26:22;43.25;;;16.40;;
64609;SDS011;51019;46.090;6.350;2022-12-18T01:28:55;40.05;;;16.65;;
64609;SDS011;51019;46.090;6.350;2022-12-18T01:31:24;45.00;;;18.55;;
64609;SDS011;51019;46.090;6.350;2022-12-18T01:33:53;38.08;;;16.67;;
64609;SDS011;51019;46.090;6.350;2022-12-18T01:36:21;39.67;;;17.67;;
64609;SDS011;51019;46.090;6.350;2022-12-18T01:38:53;40.03;;;18.25;;
64609;SDS011;51019;46.090;6.350;2022-12-18T01:41:29;39.88;;;17.05;;
64609;SDS011;51019;46.090;6.350;2022-12-18T01:47:23;41.58;;;17.23;;
64609;SDS011;51019;46.090;6.350;2022-12-18T01:49:54;40.03;;;16.95;;
64609;SDS011;51019;46.090;6.350;2022-12-18T01:52:23;39.55;;;17.42;;
64609;SDS011;51019;46.090;6.350;2022-12-18T01:54:55;40.28;;;17.42;;
64609;SDS011;51019;46.090;6.350;2022-12-18T01:57:25;39.13;;;16.15;;
64609;SDS011;51019;46.090;6.350;2022-12-18T01:59:57;39.13;;;17.20;;
64609;SDS011;51019;46.090;6.350;2022-12-18T02:02:28;38.33;;;17.85;;
64609;SDS011;51019;46.090;6.350;2022-12-18T02:04:57;41.90;;;18.58;;
64609;SDS011;51019;46.090;6.350;2022-12-18T02:07:27;40.88;;;16.55;;
64609;SDS011;51019;46.090;6.350;2022-12-18T02:10:05;38.90;;;17.23;;
64609;SDS011;51019;46.090;6.350;2022-12-18T02:12:41;36.05;;;16.08;;
64609;SDS011;51019;46.090;6.350;2022-12-18T02:15:15;38.10;;;16.67;;
64609;SDS011;51019;46.090;6.350;2022-12-18T02:17:48;37.65;;;14.63;;
64609;SDS011;51019;46.090;6.350;2022-12-18T02:20:23;38.95;;;16.63;;
64609;SDS011;51019;46.090;6.350;2022-12-18T02:23:00;42.95;;;18.48;;
64609;SDS011;51019;46.090;6.350;2022-12-18T02:25:43;40.13;;;16.00;;
64609;SDS011;51019;46.090;6.350;2022-12-18T02:28:34;35.25;;;15.88;;
64609;SDS011;51019;46.090;6.350;2022-12-18T02:31:07;38.10;;;16.63;;
64609;SDS011;51019;46.090;6.350;2022-12-18T02:33:41;36.45;;;16.48;;
64609;SDS011;51019;46.090;6.350;2022-12-18T02:36:11;36.83;;;15.80;;
64609;SDS011;51019;46.090;6.350;2022-12-18T02:38:43;35.80;;;15.88;;
64609;SDS011;51019;46.090;6.350;2022-12-18T02:41:16;35.45;;;15.15;;
64609;SDS011;51019;46.090;6.350;2022-12-18T02:43:48;36.88;;;16.17;;
64609;SDS011;51019;46.090;6.350;2022-12-18T02:46:27;33.22;;;14.60;;
64609;SDS011;51019;46.090;6.350;2022-12-18T02:49:01;37.50;;;15.70;;
64609;SDS011;51019;46.090;6.350;2022-12-18T02:51:40;36.38;;;15.68;;
64609;SDS011;51019;46.090;6.350;2022-12-18T02:54:17;35.72;;;15.60;;
64609;SDS011;51019;46.090;6.350;2022-12-18T02:57:11;34.03;;;15.25;;
64609;SDS011;51019;46.090;6.350;2022-12-18T02:59:47;34.95;;;15.00;;
64609;SDS011;51019;46.090;6.350;2022-12-18T03:02:24;34.35;;;14.15;;
64609;SDS011;51019;46.090;6.350;2022-12-18T03:04:58;34.38;;;14.45;;
64609;SDS011;51019;46.090;6.350;2022-12-18T03:07:34;33.67;;;13.48;;
64609;SDS011;51019;46.090;6.350;2022-12-18T03:10:09;35.28;;;14.52;;
64609;SDS011;51019;46.090;6.350;2022-12-18T03:12:44;38.95;;;16.02;;
64609;SDS011;51019;46.090;6.350;2022-12-18T03:15:19;34.30;;;14.82;;
64609;SDS011;51019;46.090;6.350;2022-12-18T03:17:52;36.17;;;16.40;;
64609;SDS011;51019;46.090;6.350;2022-12-18T03:20:23;36.70;;;17.38;;
64609;SDS011;51019;46.090;6.350;2022-12-18T03:22:57;36.10;;;16.50;;
64609;SDS011;51019;46.090;6.350;2022-12-18T03:25:29;32.57;;;15.23;;
64609;SDS011;51019;46.090;6.350;2022-12-18T03:27:59;35.65;;;14.27;;
64609;SDS011;51019;46.090;6.350;2022-12-18T03:30:34;36.00;;;14.93;;
64609;SDS011;51019;46.090;6.350;2022-12-18T03:33:08;35.63;;;14.50;;
64609;SDS011;51019;46.090;6.350;2022-12-18T03:35:42;32.83;;;14.93;;
64609;SDS011;51019;46.090;6.350;2022-12-18T03:38:10;35.92;;;13.95;;
64609;SDS011;51019;46.090;6.350;2022-12-18T03:40:41;36.65;;;16.23;;
64609;SDS011;51019;46.090;6.350;2022-12-18T03:43:20;35.97;;;14.35;;
64609;SDS011;51019;46.090;6.350;2022-12-18T03:46:00;36.00;;;15.20;;
64609;SDS011;51019;46.090;6.350;2022-12-18T03:48:34;35.28;;;15.40;;
64609;SDS011;51019;46.090;6.350;2022-12-18T03:51:13;35.05;;;14.13;;
64609;SDS011;51019;46.090;6.350;2022-12-18T03:53:50;31.65;;;13.07;;
64609;SDS011;51019;46.090;6.350;2022-12-18T03:56:23;30.52;;;12.52;;
64609;SDS011;51019;46.090;6.350;2022-12-18T03:58:56;32.85;;;13.82;;
64609;SDS011;51019;46.090;6.350;2022-12-18T04:01:26;32.95;;;14.02;;
64609;SDS011;51019;46.090;6.350;2022-12-18T04:03:59;30.88;;;12.77;;
64609;SDS011;51019;46.090;6.350;2022-12-18T04:08:59;26.60;;;12.10;;
64609;SDS011;51019;46.090;6.350;2022-12-18T04:11:32;29.27;;;11.70;;
64609;SDS011;51019;46.090;6.350;2022-12-18T04:14:02;29.95;;;12.15;;
64609;SDS011;51019;46.090;6.350;2022-12-18T04:16:31;30.17;;;11.70;;
64609;SDS011;51019;46.090;6.350;2022-12-18T04:18:58;27.55;;;10.90;;
64609;SDS011;51019;46.090;6.350;2022-12-18T04:21:25;30.05;;;12.05;;
64609;SDS011;51019;46.090;6.350;2022-12-18T04:23:54;26.33;;;11.85;;
64609;SDS011;51019;46.090;6.350;2022-12-18T04:26:21;25.95;;;10.38;;
64609;SDS011;51019;46.090;6.350;2022-12-18T04:28:50;27.35;;;11.35;;
64609;SDS011;51019;46.090;6.350;2022-12-18T04:31:19;25.65;;;10.32;;
64609;SDS011;51019;46.090;6.350;2022-12-18T04:33:50;28.73;;;11.60;;
64609;SDS011;51019;46.090;6.350;2022-12-18T04:36:17;28.38;;;11.38;;
64609;SDS011;51019;46.090;6.350;2022-12-18T04:38:46;27.17;;;11.80;;
64609;SDS011;51019;46.090;6.350;2022-12-18T04:41:14;29.10;;;12.10;;
64609;SDS011;51019;46.090;6.350;2022-12-18T04:43:44;28.52;;;11.15;;
64609;SDS011;51019;46.090;6.350;2022-12-18T04:46:15;30.80;;;12.32;;
64609;SDS011;51019;46.090;6.350;2022-12-18T04:48:46;27.60;;;11.65;;
64609;SDS011;51019;46.090;6.350;2022-12-18T04:51:14;27.98;;;10.90;;
64609;SDS011;51019;46.090;6.350;2022-12-18T04:53:43;29.70;;;11.57;;
64609;SDS011;51019;46.090;6.350;2022-12-18T04:56:13;27.58;;;10.50;;
64609;SDS011;51019;46.090;6.350;2022-12-18T04:58:43;24.40;;;11.30;;
64609;SDS011;51019;46.090;6.350;2022-12-18T05:01:14;26.65;;;11.27;;
64609;SDS011;51019;46.090;6.350;2022-12-18T05:03:43;27.02;;;10.95;;
64609;SDS011;51019;46.090;6.350;2022-12-18T05:06:12;27.55;;;10.48;;
64609;SDS011;51019;46.090;6.350;2022-12-18T05:08:42;24.80;;;10.52;;
64609;SDS011;51019;46.090;6.350;2022-12-18T05:11:11;27.00;;;11.23;;
64609;SDS011;51019;46.090;6.350;2022-12-18T05:13:42;25.35;;;10.27;;
64609;SDS011;51019;46.090;6.350;2022-12-18T05:16:13;21.98;;;9.98;;
64609;SDS011;51019;46.090;6.350;2022-12-18T05:18:41;25.23;;;10.75;;
64609;SDS011;51019;46.090;6.350;2022-12-18T05:21:11;23.90;;;10.30;;
64609;SDS011;51019;46.090;6.350;2022-12-18T05:23:39;23.58;;;9.77;;
64609;SDS011;51019;46.090;6.350;2022-12-18T05:26:08;24.67;;;10.20;;
64609;SDS011;51019;46.090;6.350;2022-12-18T05:28:36;28.67;;;11.90;;
64609;SDS011;51019;46.090;6.350;2022-12-18T05:31:04;29.75;;;11.80;;
64609;SDS011;51019;46.090;6.350;2022-12-18T05:33:40;30.75;;;12.45;;
64609;SDS011;51019;46.090;6.350;2022-12-18T05:36:08;27.75;;;12.38;;
64609;SDS011;51019;46.090;6.350;2022-12-18T05:38:38;31.73;;;12.20;;
64609;SDS011;51019;46.090;6.350;2022-12-18T05:41:14;33.35;;;12.52;;
64609;SDS011;51019;46.090;6.350;2022-12-18T05:43:43;30.23;;;12.63;;
64609;SDS011;51019;46.090;6.350;2022-12-18T05:46:12;31.95;;;13.25;;
64609;SDS011;51019;46.090;6.350;2022-12-18T05:48:42;34.17;;;14.82;;
64609;SDS011;51019;46.090;6.350;2022-12-18T05:51:13;30.77;;;12.77;;
64609;SDS011;51019;46.090;6.350;2022-12-18T05:53:44;30.88;;;13.00;;
64609;SDS011;51019;46.090;6.350;2022-12-18T05:56:15;30.52;;;11.98;;
64609;SDS011;51019;46.090;6.350;2022-12-18T05:58:46;30.92;;;12.95;;
64609;SDS011;51019;46.090;6.350;2022-12-18T06:01:17;30.45;;;13.27;;
64609;SDS011;51019;46.090;6.350;2022-12-18T06:03:48;31.15;;;12.23;;
64609;SDS011;51019;46.090;6.350;2022-12-18T06:06:15;31.25;;;12.45;;
64609;SDS011;51019;46.090;6.350;2022-12-18T06:08:46;25.95;;;11.20;;
64609;SDS011;51019;46.090;6.350;2022-12-18T06:11:16;31.48;;;12.20;;
64609;SDS011;51019;46.090;6.350;2022-12-18T06:13:45;29.15;;;11.77;;
64609;SDS011;51019;46.090;6.350;2022-12-18T06:16:13;31.02;;;12.82;;
64609;SDS011;51019;46.090;6.350;2022-12-18T06:18:44;29.33;;;12.43;;
64609;SDS011;51019;46.090;6.350;2022-12-18T06:21:11;28.35;;;11.68;;
64609;SDS011;51019;46.090;6.350;2022-12-18T06:23:39;31.67;;;13.32;;
64609;SDS011;51019;46.090;6.350;2022-12-18T06:26:09;33.22;;;13.48;;
64609;SDS011;51019;46.090;6.350;2022-12-18T06:28:37;31.55;;;13.95;;
64609;SDS011;51019;46.090;6.350;2022-12-18T06:31:06;32.25;;;14.35;;
64609;SDS011;51019;46.090;6.350;2022-12-18T06:33:35;34.08;;;13.45;;
64609;SDS011;51019;46.090;6.350;2022-12-18T06:36:07;33.70;;;12.65;;
64609;SDS011;51019;46.090;6.350;2022-12-18T06:38:40;30.08;;;12.63;;
64609;SDS011;51019;46.090;6.350;2022-12-18T06:43:40;36.08;;;13.20;;
64609;SDS011;51019;46.090;6.350;2022-12-18T06:46:09;35.97;;;13.90;;
64609;SDS011;51019;46.090;6.350;2022-12-18T06:48:37;31.38;;;12.98;;
64609;SDS011;51019;46.090;6.350;2022-12-18T06:51:05;29.15;;;12.02;;
64609;SDS011;51019;46.090;6.350;2022-12-18T06:53:35;30.00;;;12.10;;
64609;SDS011;51019;46.090;6.350;2022-12-18T06:56:03;27.98;;;12.20;;
64609;SDS011;51019;46.090;6.350;2022-12-18T06:58:34;27.67;;;12.32;;
64609;SDS011;51019;46.090;6.350;2022-12-18T07:01:02;34.60;;;12.63;;
64609;SDS011;51019;46.090;6.350;2022-12-18T07:03:30;31.25;;;11.98;;
64609;SDS011;51019;46.090;6.350;2022-12-18T07:05:59;29.85;;;13.27;;
64609;SDS011;51019;46.090;6.350;2022-12-18T07:08:26;31.33;;;12.38;;
64609;SDS011;51019;46.090;6.350;2022-12-18T07:10:56;28.17;;;12.40;;
64609;SDS011;51019;46.090;6.350;2022-12-18T07:13:24;28.67;;;11.60;;
64609;SDS011;51019;46.090;6.350;2022-12-18T07:15:54;24.73;;;10.32;;
64609;SDS011;51019;46.090;6.350;2022-12-18T07:18:24;27.30;;;10.55;;
64609;SDS011;51019;46.090;6.350;2022-12-18T07:20:53;28.17;;;11.48;;
64609;SDS011;51019;46.090;6.350;2022-12-18T07:23:20;28.90;;;11.40;;
64609;SDS011;51019;46.090;6.350;2022-12-18T07:25:48;32.03;;;11.75;;
64609;SDS011;51019;46.090;6.350;2022-12-18T07:28:16;27.38;;;10.85;;
64609;SDS011;51019;46.090;6.350;2022-12-18T07:30:43;27.13;;;11.20;;
64609;SDS011;51019;46.090;6.350;2022-12-18T07:33:12;27.65;;;11.35;;
64609;SDS011;51019;46.090;6.350;2022-12-18T07:35:40;29.20;;;11.73;;
64609;SDS011;51019;46.090;6.350;2022-12-18T07:38:12;31.63;;;12.02;;
64609;SDS011;51019;46.090;6.350;2022-12-18T07:40:40;26.15;;;11.18;;
64609;SDS011;51019;46.090;6.350;2022-12-18T07:43:09;27.77;;;11.73;;
64609;SDS011;51019;46.090;6.350;2022-12-18T07:45:36;29.55;;;11.88;;
64609;SDS011;51019;46.090;6.350;2022-12-18T07:48:04;29.58;;;12.32;;
64609;SDS011;51019;46.090;6.350;2022-12-18T07:50:33;28.88;;;12.35;;
64609;SDS011;51019;46.090;6.350;2022-12-18T07:53:02;27.13;;;10.75;;
64609;SDS011;51019;46.090;6.350;2022-12-18T07:55:30;24.20;;;10.57;;
64609;SDS011;51019;46.090;6.350;2022-12-18T07:58:02;26.35;;;10.98;;
64609;SDS011;51019;46.090;6.350;2022-12-18T08:00:30;26.02;;;9.85;;
64609;SDS011;51019;46.090;6.350;2022-12-18T08:02:58;24.80;;;10.30;;
64609;SDS011;51019;46.090;6.350;2022-12-18T08:05:26;27.83;;;11.13;;
64609;SDS011;51019;46.090;6.350;2022-12-18T08:07:57;28.75;;;12.07;;
64609;SDS011;51019;46.090;6.350;2022-12-18T08:10:26;27.98;;;11.13;;
64609;SDS011;51019;46.090;6.350;2022-12-18T08:12:53;25.40;;;11.27;;
64609;SDS011;51019;46.090;6.350;2022-12-18T08:15:22;30.38;;;13.23;;
64609;SDS011;51019;46.090;6.350;2022-12-18T08:17:49;28.75;;;11.73;;
64609;SDS011;51019;46.090;6.350;2022-12-18T08:20:18;28.42;;;11.23;;
64609;SDS011;51019;46.090;6.350;2022-12-18T08:22:46;27.77;;;11.10;;
64609;SDS011;51019;46.090;6.350;2022-12-18T08:25:16;31.98;;;11.75;;
64609;SDS011;51019;46.090;6.350;2022-12-18T08:27:43;27.17;;;10.27;;
64609;SDS011;51019;46.090;6.350;2022-12-18T08:30:12;27.75;;;10.52;;
64609;SDS011;51019;46.090;6.350;2022-12-18T08:32:40;28.88;;;10.55;;
64609;SDS011;51019;46.090;6.350;2022-12-18T08:35:08;29.02;;;12.05;;
64609;SDS011;51019;46.090;6.350;2022-12-18T08:37:37;26.23;;;11.10;;
64609;SDS011;51019;46.090;6.350;2022-12-18T08:40:06;27.02;;;11.00;;
64609;SDS011;51019;46.090;6.350;2022-12-18T08:42:36;29.48;;;11.65;;
64609;SDS011;51019;46.090;6.350;2022-12-18T08:45:21;31.77;;;12.43;;
64609;SDS011;51019;46.090;6.350;2022-12-18T08:47:49;30.40;;;12.30;;
64609;SDS011;51019;46.090;6.350;2022-12-18T08:50:17;31.42;;;13.48;;
64609;SDS011;51019;46.090;6.350;2022-12-18T08:52:45;26.95;;;11.55;;
64609;SDS011;51019;46.090;6.350;2022-12-18T08:55:12;28.70;;;11.88;;
64609;SDS011;51019;46.090;6.350;2022-12-18T08:57:42;26.55;;;10.85;;
64609;SDS011;51019;46.090;6.350;2022-12-18T09:00:10;27.42;;;10.55;;
64609;SDS011;51019;46.090;6.350;2022-12-18T09:02:39;25.85;;;9.35;;
64609;SDS011;51019;46.090;6.350;2022-12-18T09:05:07;24.73;;;11.07;;
64609;SDS011;51019;46.090;6.350;2022-12-18T09:07:34;29.67;;;11.50;;
64609;SDS011;51019;46.090;6.350;2022-12-18T09:10:02;25.63;;;11.73;;
64609;SDS011;51019;46.090;6.350;2022-12-18T09:12:30;29.33;;;10.95;;
64609;SDS011;51019;46.090;6.350;2022-12-18T09:15:00;27.90;;;10.52;;
64609;SDS011;51019;46.090;6.350;2022-12-18T09:17:27;26.45;;;11.38;;
64609;SDS011;51019;46.090;6.350;2022-12-18T09:19:55;32.35;;;12.23;;
64609;SDS011;51019;46.090;6.350;2022-12-18T09:22:25;28.75;;;11.73;;
64609;SDS011;51019;46.090;6.350;2022-12-18T09:24:54;24.92;;;10.73;;
64609;SDS011;51019;46.090;6.350;2022-12-18T09:27:22;30.15;;;12.80;;
64609;SDS011;51019;46.090;6.350;2022-12-18T09:29:49;27.70;;;10.60;;
64609;SDS011;51019;46.090;6.350;2022-12-18T09:32:19;25.92;;;10.35;;
64609;SDS011;51019;46.090;6.350;2022-12-18T09:34:48;26.90;;;10.90;;
64609;SDS011;51019;46.090;6.350;2022-12-18T09:37:17;26.52;;;11.18;;
64609;SDS011;51019;46.090;6.350;2022-12-18T09:39:45;25.10;;;11.15;;
64609;SDS011;51019;46.090;6.350;2022-12-18T09:42:12;25.10;;;10.40;;
64609;SDS011;51019;46.090;6.350;2022-12-18T09:44:48;24.90;;;10.77;;
64609;SDS011;51019;46.090;6.350;2022-12-18T09:47:19;29.15;;;11.68;;
64609;SDS011;51019;46.090;6.350;2022-12-18T09:49:52;28.65;;;10.95;;
64609;SDS011;51019;46.090;6.350;2022-12-18T09:54:56;27.70;;;11.70;;
64609;SDS011;51019;46.090;6.350;2022-12-18T09:57:29;26.70;;;11.25;;
64609;SDS011;51019;46.090;6.350;2022-12-18T10:00:06;28.75;;;10.75;;
64609;SDS011;51019;46.090;6.350;2022-12-18T10:02:44;30.38;;;11.18;;
64609;SDS011;51019;46.090;6.350;2022-12-18T10:05:33;25.58;;;11.23;;
64609;SDS011;51019;46.090;6.350;2022-12-18T10:08:05;28.20;;;11.65;;
64609;SDS011;51019;46.090;6.350;2022-12-18T10:10:41;27.88;;;10.98;;
64609;SDS011;51019;46.090;6.350;2022-12-18T10:13:20;28.08;;;11.60;;
64609;SDS011;51019;46.090;6.350;2022-12-18T10:18:54;34.47;;;11.85;;
64609;SDS011;51019;46.090;6.350;2022-12-18T10:21:34;25.58;;;11.10;;
64609;SDS011;51019;46.090;6.350;2022-12-18T10:24:12;27.20;;;11.75;;
64609;SDS011;51019;46.090;6.350;2022-12-18T10:26:51;26.75;;;11.90;;
64609;SDS011;51019;46.090;6.350;2022-12-18T10:29:24;25.33;;;10.93;;
64609;SDS011;51019;46.090;6.350;2022-12-18T10:31:52;26.85;;;11.25;;
64609;SDS011;51019;46.090;6.350;2022-12-18T10:34:23;26.88;;;10.50;;
64609;SDS011;51019;46.090;6.350;2022-12-18T10:36:51;26.33;;;10.07;;
64609;SDS011;51019;46.090;6.350;2022-12-18T10:39:19;27.95;;;11.45;;
64609;SDS011;51019;46.090;6.350;2022-12-18T10:41:51;29.00;;;11.00;;
64609;SDS011;51019;46.090;6.350;2022-12-18T10:44:35;24.98;;;11.05;;
64609;SDS011;51019;46.090;6.350;2022-12-18T10:47:03;28.20;;;10.52;;
64609;SDS011;51019;46.090;6.350;2022-12-18T10:49:35;24.90;;;10.60;;
64609;SDS011;51019;46.090;6.350;2022-12-18T10:52:07;26.38;;;11.50;;
64609;SDS011;51019;46.090;6.350;2022-12-18T10:54:45;26.65;;;10.98;;
64609;SDS011;51019;46.090;6.350;2022-12-18T10:57:15;29.80;;;11.13;;
64609;SDS011;51019;46.090;6.350;2022-12-18T11:02:56;24.70;;;10.88;;
64609;SDS011;51019;46.090;6.350;2022-12-18T11:05:27;30.60;;;12.07;;
64609;SDS011;51019;46.090;6.350;2022-12-18T11:07:56;24.13;;;10.45;;
64609;SDS011;51019;46.090;6.350;2022-12-18T11:10:26;27.30;;;11.43;;
64609;SDS011;51019;46.090;6.350;2022-12-18T11:13:08;24.50;;;10.30;;
64609;SDS011;51019;46.090;6.350;2022-12-18T11:15:43;24.40;;;11.23;;
64609;SDS011;51019;46.090;6.350;2022-12-18T11:18:18;24.45;;;11.38;;
64609;SDS011;51019;46.090;6.350;2022-12-18T11:20:54;25.77;;;10.88;;
64609;SDS011;51019;46.090;6.350;2022-12-18T11:23:24;28.85;;;11.55;;
64609;SDS011;51019;46.090;6.350;2022-12-18T11:25:54;24.33;;;10.63;;
64609;SDS011;51019;46.090;6.350;2022-12-18T11:28:29;24.23;;;10.38;;
64609;SDS011;51019;46.090;6.350;2022-12-18T11:31:15;27.40;;;11.77;;
64609;SDS011;51019;46.090;6.350;2022-12-18T11:36:18;25.25;;;10.43;;
64609;SDS011;51019;46.090;6.350;2022-12-18T11:38:48;22.55;;;10.05;;
64609;SDS011;51019;46.090;6.350;2022-12-18T11:41:22;25.13;;;11.00;;
64609;SDS011;51019;46.090;6.350;2022-12-18T11:44:15;24.63;;;10.98;;
64609;SDS011;51019;46.090;6.350;2022-12-18T11:46:53;24.20;;;10.27;;
64609;SDS011;51019;46.090;6.350;2022-12-18T11:49:27;25.23;;;10.68;;
64609;SDS011;51019;46.090;6.350;2022-12-18T11:52:03;24.25;;;10.00;;
64609;SDS011;51019;46.090;6.350;2022-12-18T11:54:36;21.52;;;10.35;;
64609;SDS011;51019;46.090;6.350;2022-12-18T11:57:06;22.60;;;10.73;;
64609;SDS011;51019;46.090;6.350;2022-12-18T11:59:43;23.33;;;10.00;;
64609;SDS011;51019;46.090;6.350;2022-12-18T12:02:28;25.15;;;12.18;;
64609;SDS011;51019;46.090;6.350;2022-12-18T12:05:18;21.97;;;9.93;;
64609;SDS011;51019;46.090;6.350;2022-12-18T12:07:59;25.15;;;11.70;;
64609;SDS011;51019;46.090;6.350;2022-12-18T12:10:34;24.80;;;11.52;;
64609;SDS011;51019;46.090;6.350;2022-12-18T12:13:13;22.90;;;10.75;;
64609;SDS011;51019;46.090;6.350;2022-12-18T12:15:52;22.40;;;10.32;;
64609;SDS011;51019;46.090;6.350;2022-12-18T12:18:32;23.63;;;11.00;;
64609;SDS011;51019;46.090;6.350;2022-12-18T12:21:09;22.00;;;11.07;;
64609;SDS011;51019;46.090;6.350;2022-12-18T12:23:47;24.27;;;11.10;;
64609;SDS011;51019;46.090;6.350;2022-12-18T12:26:22;23.67;;;11.18;;
64609;SDS011;51019;46.090;6.350;2022-12-18T12:29:01;24.02;;;10.73;;
64609;SDS011;51019;46.090;6.350;2022-12-18T12:31:43;20.77;;;10.38;;
64609;SDS011;51019;46.090;6.350;2022-12-18T12:34:22;22.75;;;11.10;;
64609;SDS011;51019;46.090;6.350;2022-12-18T12:36:58;22.23;;;10.50;;
64609;SDS011;51019;46.090;6.350;2022-12-18T12:39:37;21.92;;;10.50;;
64609;SDS011;51019;46.090;6.350;2022-12-18T12:42:10;22.02;;;10.70;;
64609;SDS011;51019;46.090;6.350;2022-12-18T12:45:03;21.70;;;10.10;;
64609;SDS011;51019;46.090;6.350;2022-12-18T12:47:35;22.38;;;10.80;;
64609;SDS011;51019;46.090;6.350;2022-12-18T12:50:12;21.50;;;11.02;;
64609;SDS011;51019;46.090;6.350;2022-12-18T12:52:44;21.83;;;10.43;;
64609;SDS011;51019;46.090;6.350;2022-12-18T12:55:18;22.50;;;10.55;;
64609;SDS011;51019;46.090;6.350;2022-12-18T12:57:48;21.83;;;9.95;;
64609;SDS011;51019;46.090;6.350;2022-12-18T13:00:24;20.33;;;10.32;;
64609;SDS011;51019;46.090;6.350;2022-12-18T13:02:56;20.95;;;9.50;;
64609;SDS011;51019;46.090;6.350;2022-12-18T13:05:29;19.98;;;9.65;;
64609;SDS011;51019;46.090;6.350;2022-12-18T13:08:02;20.15;;;8.90;;
64609;SDS011;51019;46.090;6.350;2022-12-18T13:10:35;20.17;;;9.93;;
64609;SDS011;51019;46.090;6.350;2022-12-18T13:13:04;20.08;;;9.38;;
64609;SDS011;51019;46.090;6.350;2022-12-18T13:15:33;21.23;;;9.55;;
64609;SDS011;51019;46.090;6.350;2022-12-18T13:18:10;20.85;;;10.65;;
64609;SDS011;51019;46.090;6.350;2022-12-18T13:20:42;20.08;;;9.65;;
64609;SDS011;51019;46.090;6.350;2022-12-18T13:29:12;21.70;;;10.00;;
64609;SDS011;51019;46.090;6.350;2022-12-18T13:32:19;23.75;;;11.65;;
64609;SDS011;51019;46.090;6.350;2022-12-18T13:34:47;20.83;;;9.65;;
64609;SDS011;51019;46.090;6.350;2022-12-18T13:37:39;25.13;;;9.43;;
64609;SDS011;51019;46.090;6.350;2022-12-18T13:43:32;23.60;;;9.90;;
64609;SDS011;51019;46.090;6.350;2022-12-18T13:46:16;23.13;;;9.50;;
64609;SDS011;51019;46.090;6.350;2022-12-18T13:48:50;26.08;;;10.38;;
64609;SDS011;51019;46.090;6.350;2022-12-18T13:51:24;23.27;;;10.23;;
64609;SDS011;51019;46.090;6.350;2022-12-18T13:53:54;22.83;;;9.43;;
64609;SDS011;51019;46.090;6.350;2022-12-18T13:56:25;26.40;;;10.88;;
64609;SDS011;51019;46.090;6.350;2022-12-18T13:59:05;22.92;;;9.90;;
64609;SDS011;51019;46.090;6.350;2022-12-18T14:01:43;24.35;;;9.65;;
64609;SDS011;51019;46.090;6.350;2022-12-18T14:04:16;26.17;;;10.63;;
64609;SDS011;51019;46.090;6.350;2022-12-18T14:06:49;23.13;;;10.70;;
64609;SDS011;51019;46.090;6.350;2022-12-18T14:09:20;24.48;;;9.82;;
64609;SDS011;51019;46.090;6.350;2022-12-18T14:11:51;23.23;;;9.63;;
64609;SDS011;51019;46.090;6.350;2022-12-18T14:14:42;24.10;;;9.98;;
64609;SDS011;51019;46.090;6.350;2022-12-18T14:17:14;25.88;;;11.35;;
64609;SDS011;51019;46.090;6.350;2022-12-18T14:19:43;25.77;;;10.82;;
64609;SDS011;51019;46.090;6.350;2022-12-18T14:22:16;26.25;;;10.52;;
64609;SDS011;51019;46.090;6.350;2022-12-18T14:24:45;27.35;;;10.95;;
64609;SDS011;51019;46.090;6.350;2022-12-18T14:27:20;24.50;;;10.90;;
64609;SDS011;51019;46.090;6.350;2022-12-18T14:29:50;23.73;;;10.07;;
64609;SDS011;51019;46.090;6.350;2022-12-18T14:32:20;24.15;;;9.68;;
64609;SDS011;51019;46.090;6.350;2022-12-18T14:34:48;26.30;;;11.77;;
64609;SDS011;51019;46.090;6.350;2022-12-18T14:37:17;25.48;;;10.88;;
64609;SDS011;51019;46.090;6.350;2022-12-18T14:39:52;25.05;;;10.15;;
64609;SDS011;51019;46.090;6.350;2022-12-18T14:47:59;24.88;;;9.38;;
64609;SDS011;51019;46.090;6.350;2022-12-18T14:50:28;23.10;;;10.15;;
64609;SDS011;51019;46.090;6.350;2022-12-18T14:52:56;27.52;;;11.73;;
64609;SDS011;51019;46.090;6.350;2022-12-18T14:55:24;25.35;;;10.73;;
64609;SDS011;51019;46.090;6.350;2022-12-18T14:57:54;25.25;;;10.63;;
64609;SDS011;51019;46.090;6.350;2022-12-18T15:00:25;27.15;;;10.32;;
64609;SDS011;51019;46.090;6.350;2022-12-18T15:02:53;23.42;;;9.95;;
64609;SDS011;51019;46.090;6.350;2022-12-18T15:05:26;23.95;;;10.52;;
64609;SDS011;51019;46.090;6.350;2022-12-18T15:07:55;23.77;;;10.52;;
64609;SDS011;51019;46.090;6.350;2022-12-18T15:10:25;24.45;;;10.00;;
64609;SDS011;51019;46.090;6.350;2022-12-18T15:13:06;25.25;;;11.55;;
64609;SDS011;51019;46.090;6.350;2022-12-18T15:15:45;26.65;;;10.50;;
64609;SDS011;51019;46.090;6.350;2022-12-18T15:18:17;22.65;;;10.13;;
64609;SDS011;51019;46.090;6.350;2022-12-18T15:20:50;22.70;;;9.70;;
64609;SDS011;51019;46.090;6.350;2022-12-18T15:23:21;24.80;;;10.65;;
64609;SDS011;51019;46.090;6.350;2022-12-18T15:25:54;25.85;;;10.20;;